Noginsk, Russia
Current Conditions -  °F | °C
As of 4:00 AM on Saturday 25 Oct 2014 (Local Time) from UUDD Reporting Station
Clear Clear  
Wind Chill: 10°   Ceiling: Unl
Heat Index: 10°   Visibility: 6mi
Dew Point:   Wind: 0mph
Humidity: 92%   Direction: NA
Pressure: 30.62"   Gusts: NA
Location:  55.85°N, 38.44°E
Report Text: UUDD 250100Z 00000MPS CAVOK M12/M13 Q1037 32010095 82010095NOSIG
Loading
Personal Weather Stations






























Interactive Weather Map
Tropical Storm Tracking
New forecast layout! Learn more

10-Day Weather Forecast

Advertisements
Track Severe Weather on mobile